Time;durP1;ratioP1;P1;durP2;ratioP2;P2;SDS_P1;SDS_P2;PMS_P1;PMS_P2;Temp;Humidity;BMP_temperature;BMP_pressure;BME280_temperature;BME280_humidity;BME280_pressure;Samples;Min_cycle;Max_cycle;Signal;HPM_P1;HPM_P2
2023/01/04 00:01:17;;;;;;;61.28;38.55;;;9.50;82.80;;;;;;5092275;28;20028;-13
2023/01/04 00:03:43;;;;;;;63.30;39.17;;;9.50;82.80;;;;;;5092338;28;20069;-13
2023/01/04 00:06:11;;;;;;;61.20;37.35;;;9.50;82.90;;;;;;5092501;28;20110;-13
2023/01/04 00:08:38;;;;;;;56.38;35.40;;;9.40;82.80;;;;;;5092314;28;20059;-14
2023/01/04 00:11:06;;;;;;;58.05;36.78;;;9.30;82.80;;;;;;5092037;28;20067;-14
2023/01/04 00:13:32;;;;;;;61.20;38.83;;;9.30;82.80;;;;;;5092393;28;20021;-14
2023/01/04 00:16:03;;;;;;;58.33;37.30;;;9.20;82.90;;;;;;5092474;28;20116;-14
2023/01/04 00:18:30;;;;;;;56.10;35.83;;;9.20;82.80;;;;;;5092403;28;20046;-14
2023/01/04 00:21:09;;;;;;;55.45;36.80;;;9.10;82.70;;;;;;5091921;28;20024;-13
2023/01/04 00:23:39;;;;;;;48.20;32.72;;;9.00;82.70;;;;;;5092244;28;20020;-12
2023/01/04 00:26:26;;;;;;;56.95;35.53;;;8.90;82.80;;;;;;5092143;28;20020;-13
2023/01/04 00:29:01;;;;;;;52.65;33.75;;;8.90;83.00;;;;;;5091889;28;20028;-13
2023/01/04 00:31:27;;;;;;;54.85;35.22;;;8.90;83.00;;;;;;5091932;28;20456;-14
2023/01/04 00:33:55;;;;;;;56.85;34.42;;;8.80;83.00;;;;;;5092164;28;20129;-14
2023/01/04 00:36:21;;;;;;;51.80;32.88;;;8.70;82.90;;;;;;5092046;28;20523;-14
2023/01/04 00:39:05;;;;;;;50.95;33.28;;;8.60;83.00;;;;;;5091778;28;20068;-13
2023/01/04 00:41:48;;;;;;;44.53;27.58;;;8.50;82.90;;;;;;5092447;28;20051;-14
2023/01/04 00:44:15;;;;;;;45.83;29.90;;;8.40;83.00;;;;;;5092279;28;20487;-13
2023/01/04 00:46:43;;;;;;;50.33;31.30;;;8.30;83.10;;;;;;5091953;28;20057;-13
2023/01/04 00:49:11;;;;;;;49.85;30.75;;;8.20;83.20;;;;;;5091717;28;20099;-14
2023/01/04 00:51:38;;;;;;;48.78;31.00;;;8.20;83.20;;;;;;5091820;28;20388;-13
2023/01/04 00:54:07;;;;;;;47.47;27.88;;;8.10;83.30;;;;;;5092414;28;20028;-14
2023/01/04 00:56:34;;;;;;;44.78;26.63;;;8.00;83.40;;;;;;5095478;28;20027;-14
2023/01/04 00:59:01;;;;;;;48.67;29.65;;;7.90;83.40;;;;;;5095280;28;20027;-13
2023/01/04 01:01:29;;;;;;;40.20;26.25;;;7.90;83.40;;;;;;5095377;28;20039;-14
2023/01/04 01:03:57;;;;;;;41.33;25.42;;;7.90;83.50;;;;;;5095341;28;20129;-14
2023/01/04 01:06:25;;;;;;;37.90;23.55;;;7.80;83.50;;;;;;5095288;28;20077;-14
2023/01/04 01:08:52;;;;;;;34.08;22.20;;;7.70;83.50;;;;;;5095365;28;20056;-13
2023/01/04 01:11:19;;;;;;;36.55;23.88;;;7.70;83.50;;;;;;5095030;28;20028;-13
2023/01/04 01:13:45;;;;;;;36.25;22.45;;;7.70;83.60;;;;;;5095068;28;20364;-14
2023/01/04 01:16:13;;;;;;;38.90;24.10;;;7.60;83.60;;;;;;5095091;28;20027;-13
2023/01/04 01:18:41;;;;;;;36.17;23.38;;;7.60;83.50;;;;;;5095355;28;20028;-14
2023/01/04 01:21:10;;;;;;;32.25;21.92;;;7.50;83.40;;;;;;5095100;28;20027;-14
2023/01/04 01:23:36;;;;;;;33.95;22.70;;;7.40;83.30;;;;;;5095192;28;20518;-14
2023/01/04 01:26:03;;;;;;;42.80;25.33;;;7.30;83.40;;;;;;5093596;28;20123;-14
2023/01/04 01:28:30;;;;;;;33.28;21.73;;;7.30;83.50;;;;;;5094677;28;20031;-14
2023/01/04 01:30:58;;;;;;;35.95;21.83;;;7.20;83.50;;;;;;5094252;28;20052;-15
2023/01/04 01:33:26;;;;;;;35.95;22.85;;;7.20;83.60;;;;;;5094771;28;20028;-15
2023/01/04 01:35:52;;;;;;;44.88;26.20;;;7.10;83.70;;;;;;5093444;28;20098;-14
2023/01/04 01:38:18;;;;;;;35.40;22.52;;;7.10;83.70;;;;;;5094638;28;20036;-15
2023/01/04 01:40:45;;;;;;;30.38;20.23;;;7.00;83.80;;;;;;5094839;28;20012;-14
2023/01/04 01:43:22;;;;;;;33.13;21.20;;;6.90;83.80;;;;;;5094254;28;20119;-15
2023/01/04 01:45:53;;;;;;;41.53;25.33;;;6.90;83.90;;;;;;5094004;28;20055;-14
2023/01/04 01:48:25;;;;;;;32.85;20.23;;;6.90;84.00;;;;;;5094706;28;20028;-14
2023/01/04 01:51:01;;;;;;;43.17;26.30;;;6.90;84.00;;;;;;5094293;28;20057;-14
2023/01/04 01:53:32;;;;;;;41.05;25.60;;;6.90;84.10;;;;;;5094746;28;20036;-14
2023/01/04 01:55:59;;;;;;;45.17;27.77;;;6.90;84.10;;;;;;5094628;28;20020;-14
2023/01/04 01:58:34;;;;;;;43.35;25.23;;;6.80;84.20;;;;;;5094348;28;20036;-13
2023/01/04 02:01:01;;;;;;;47.40;26.38;;;6.80;84.10;;;;;;5094438;28;20080;-15
2023/01/04 02:03:45;;;;;;;43.08;26.70;;;6.80;84.20;;;;;;5094471;28;20568;-13
2023/01/04 02:06:17;;;;;;;44.28;27.33;;;6.80;84.10;;;;;;5094432;28;20028;-12
2023/01/04 02:08:43;;;;;;;40.85;25.42;;;6.80;84.00;;;;;;5094464;28;20032;-14
2023/01/04 02:11:09;;;;;;;40.72;24.67;;;6.80;83.90;;;;;;5094057;28;20040;-13
2023/01/04 02:16:46;;;;;;;49.95;28.98;;;6.70;83.70;;;;;;5094481;28;20043;-14
2023/01/04 02:19:45;;;;;;;38.90;23.63;;;6.70;83.80;;;;;;5093970;28;20049;-14
2023/01/04 02:22:40;;;;;;;44.38;25.50;;;6.60;83.70;;;;;;5093732;28;20031;-12
2023/01/04 02:25:19;;;;;;;43.78;25.58;;;6.60;83.80;;;;;;5093656;28;20365;-13
2023/01/04 02:27:57;;;;;;;43.83;26.42;;;6.50;83.80;;;;;;5092510;28;20078;-14
2023/01/04 02:30:43;;;;;;;43.22;25.95;;;6.40;83.90;;;;;;5093643;28;20071;-14
2023/01/04 02:33:15;;;;;;;43.05;26.80;;;6.40;83.90;;;;;;5082910;28;20064;-14
2023/01/04 02:36:10;;;;;;;46.03;27.85;;;6.30;83.90;;;;;;5093661;28;20124;-14
2023/01/04 02:39:25;;;;;;;43.97;25.75;;;6.30;83.80;;;;;;5093535;28;20032;-14
2023/01/04 02:42:15;;;;;;;45.28;27.90;;;6.10;84.00;;;;;;5082615;28;20039;-15
2023/01/04 02:44:52;;;;;;;47.50;28.67;;;6.10;84.10;;;;;;5093444;28;20024;-13
2023/01/04 02:50:52;;;;;;;35.47;22.83;;;5.90;84.40;;;;;;5093692;28;20051;-14
2023/01/04 02:53:22;;;;;;;33.03;20.77;;;5.90;84.40;;;;;;5093313;28;20036;-14
2023/01/04 02:56:02;;;;;;;40.28;24.65;;;5.90;84.50;;;;;;5093288;28;20024;-14
2023/01/04 02:58:58;;;;;;;35.05;21.70;;;5.90;84.50;;;;;;5093191;28;20032;-13
2023/01/04 03:08:21;;;;;;;38.53;23.40;;;5.90;84.40;;;;;;5093801;28;20058;-14
2023/01/04 03:12:30;;;;;;;33.08;21.65;;;5.90;84.40;;;;;;5092850;28;20036;-13
2023/01/04 03:14:15;;;;;;;30.15;19.58;;;5.90;84.40;;;;;;5093021;28;20090;-14
2023/01/04 03:16:43;;;;;;;35.10;21.35;;;5.80;84.30;;;;;;5092922;28;20044;-13
2023/01/04 03:19:11;;;;;;;39.72;24.63;;;5.90;84.30;;;;;;5092812;28;20038;-13
2023/01/04 03:21:43;;;;;;;38.50;23.23;;;5.80;84.30;;;;;;5093140;28;20089;-13
2023/01/04 03:36:02;;;;;;;38.17;23.40;;;5.70;84.40;;;;;;5093205;28;20039;-14
2023/01/04 03:50:38;;;;;;;35.03;20.60;;;5.40;84.60;;;;;;5092776;28;20088;-14
2023/01/04 03:53:06;;;;;;;43.03;26.48;;;5.40;84.70;;;;;;5093022;28;20032;-14
2023/01/04 03:55:35;;;;;;;46.20;26.98;;;5.40;84.70;;;;;;5091169;28;20116;-14
2023/01/04 03:58:01;;;;;;;43.95;25.92;;;5.40;84.70;;;;;;5093094;28;20028;-14
2023/01/04 04:00:27;;;;;;;41.88;25.67;;;5.30;84.60;;;;;;5092499;28;20454;-14
2023/01/04 04:02:53;;;;;;;52.47;29.17;;;5.20;84.60;;;;;;5092203;28;20032;-14
2023/01/04 04:08:29;;;;;;;36.75;23.00;;;5.20;84.80;;;;;;5092837;28;20116;-14
2023/01/04 04:13:51;;;;;;;30.13;19.08;;;5.10;84.80;;;;;;5092657;28;20036;-13
2023/01/04 04:16:18;;;;;;;28.73;18.17;;;5.00;84.80;;;;;;5092838;28;20127;-24
2023/01/04 04:18:44;;;;;;;43.53;24.70;;;5.00;84.80;;;;;;5092243;28;20032;-14
2023/01/04 04:21:10;;;;;;;38.47;23.45;;;4.90;84.80;;;;;;5092153;28;20498;-13
2023/01/04 04:23:36;;;;;;;34.75;21.23;;;4.90;84.90;;;;;;5092557;28;20043;-14
2023/01/04 04:26:02;;;;;;;32.95;20.40;;;4.90;84.90;;;;;;5092225;28;20386;-15
2023/01/04 04:28:28;;;;;;;27.50;16.85;;;4.80;84.90;;;;;;5092356;28;20051;-14
2023/01/04 04:30:53;;;;;;;39.05;23.98;;;4.80;84.90;;;;;;5094882;28;20404;-14
2023/01/04 04:33:20;;;;;;;32.50;20.65;;;4.70;85.00;;;;;;5095980;28;20028;-14
2023/01/04 04:35:50;;;;;;;30.17;17.88;;;4.70;85.10;;;;;;5096394;28;20020;-15
2023/01/04 04:38:17;;;;;;;29.08;17.77;;;4.70;85.10;;;;;;5096344;28;20020;-14
2023/01/04 04:43:27;;;;;;;37.95;22.58;;;4.60;85.20;;;;;;5096161;28;20035;-13
2023/01/04 04:45:54;;;;;;;39.35;22.55;;;4.70;85.20;;;;;;5096045;28;20032;-14
2023/01/04 04:48:19;;;;;;;37.53;23.60;;;4.70;85.10;;;;;;5095808;28;20103;-14
2023/01/04 04:50:45;;;;;;;33.83;21.15;;;4.70;85.10;;;;;;5095559;28;20174;-15
2023/01/04 04:53:11;;;;;;;35.35;22.05;;;4.60;85.10;;;;;;5096117;28;20027;-12
2023/01/04 04:55:37;;;;;;;44.38;27.63;;;4.60;85.10;;;;;;5096044;28;20031;-12
2023/01/04 04:58:03;;;;;;;44.97;27.15;;;4.60;85.10;;;;;;5095381;28;20020;-12
2023/01/04 05:00:29;;;;;;;42.88;26.75;;;4.60;85.10;;;;;;5096203;28;20138;-12
2023/01/04 05:02:58;;;;;;;36.80;22.65;;;4.60;85.20;;;;;;5095262;28;20030;-12
2023/01/04 05:05:24;;;;;;;43.53;26.38;;;4.60;85.10;;;;;;5095422;28;20023;-12
2023/01/04 05:07:49;;;;;;;55.92;28.08;;;4.60;85.10;;;;;;5095424;28;20085;-13
2023/01/04 05:10:15;;;;;;;42.22;25.77;;;4.50;85.10;;;;;;5095518;28;20386;-14
2023/01/04 05:13:00;;;;;;;39.20;23.42;;;4.60;85.20;;;;;;5095115;28;20098;-14
2023/01/04 05:15:32;;;;;;;43.28;25.23;;;4.50;85.20;;;;;;5095553;28;20020;-13
2023/01/04 05:17:58;;;;;;;43.40;27.17;;;4.50;85.10;;;;;;5095479;28;20115;-13
2023/01/04 05:20:24;;;;;;;47.63;27.08;;;4.50;85.20;;;;;;5094977;28;20024;-13
2023/01/04 05:22:50;;;;;;;46.13;25.75;;;4.50;85.20;;;;;;5095214;28;20020;-13
2023/01/04 05:25:17;;;;;;;50.35;28.75;;;4.50;85.20;;;;;;5094968;28;20034;-13
2023/01/04 05:27:43;;;;;;;44.35;26.63;;;4.50;85.30;;;;;;5095177;28;20094;-13
2023/01/04 05:32:58;;;;;;;46.50;27.08;;;4.60;85.30;;;;;;5095070;28;20043;-13
2023/01/04 05:35:24;;;;;;;37.40;22.25;;;4.60;85.20;;;;;;5095064;28;20028;-13
2023/01/04 05:37:49;;;;;;;45.40;27.00;;;4.50;85.20;;;;;;5094838;28;20016;-13
2023/01/04 05:40:15;;;;;;;47.03;27.85;;;4.50;85.30;;;;;;5094302;28;20031;-14
2023/01/04 05:42:42;;;;;;;49.65;27.85;;;4.50;85.20;;;;;;5094535;28;20016;-13
2023/01/04 05:45:08;;;;;;;36.33;21.45;;;4.40;85.10;;;;;;5093856;28;20345;-13
2023/01/04 05:47:34;;;;;;;43.40;25.27;;;4.50;85.20;;;;;;5094567;28;20021;-13
2023/01/04 05:50:00;;;;;;;45.33;25.70;;;4.40;85.20;;;;;;5093241;28;20024;-13
2023/01/04 05:52:27;;;;;;;36.95;23.08;;;4.40;85.20;;;;;;5094470;28;20506;-13
2023/01/04 05:54:52;;;;;;;52.40;28.38;;;4.40;85.10;;;;;;5094590;28;20051;-12
2023/01/04 05:57:18;;;;;;;45.20;27.50;;;4.40;85.20;;;;;;5094185;28;20075;-14
2023/01/04 05:59:44;;;;;;;39.65;25.52;;;4.40;85.40;;;;;;5094331;28;20017;-14
2023/01/04 06:02:28;;;;;;;40.22;25.50;;;4.40;85.30;;;;;;5094673;28;20020;-12
2023/01/04 06:04:54;;;;;;;42.45;26.40;;;4.30;85.20;;;;;;5094708;28;20028;-12
2023/01/04 06:07:20;;;;;;;40.60;25.70;;;4.30;85.30;;;;;;5094018;28;20500;-13
2023/01/04 06:09:46;;;;;;;41.03;24.83;;;4.30;85.50;;;;;;5094509;28;20447;-12
2023/01/04 06:12:12;;;;;;;37.92;23.45;;;4.20;85.40;;;;;;5093984;28;20039;-13
2023/01/04 06:14:37;;;;;;;34.47;21.23;;;4.20;85.40;;;;;;5094093;28;20020;-12
2023/01/04 06:17:04;;;;;;;39.95;24.27;;;4.20;85.50;;;;;;5093765;28;20081;-14
2023/01/04 06:19:30;;;;;;;39.75;24.95;;;4.20;85.60;;;;;;5094224;28;20047;-15
2023/01/04 06:21:56;;;;;;;47.78;26.80;;;4.20;85.50;;;;;;5094081;28;20019;-13
2023/01/04 06:24:22;;;;;;;49.30;27.92;;;4.20;85.50;;;;;;5094138;28;20028;-14
2023/01/04 06:26:48;;;;;;;40.65;23.55;;;4.20;85.50;;;;;;5092354;28;20024;-13
2023/01/04 06:29:14;;;;;;;46.60;26.33;;;4.20;85.60;;;;;;5093892;28;20107;-14
2023/01/04 06:31:40;;;;;;;31.60;18.83;;;4.20;85.60;;;;;;5093511;28;20120;-15
2023/01/04 06:34:06;;;;;;;37.80;23.17;;;4.10;85.50;;;;;;5092377;28;20059;-13
2023/01/04 06:36:32;;;;;;;37.08;24.35;;;4.20;85.60;;;;;;5093781;28;20457;-14
2023/01/04 06:38:59;;;;;;;40.65;25.90;;;4.20;85.50;;;;;;5093364;28;20039;-14
2023/01/04 06:41:25;;;;;;;41.90;25.85;;;4.10;85.60;;;;;;5093870;28;20038;-14
2023/01/04 06:43:52;;;;;;;51.45;28.45;;;4.20;85.70;;;;;;5093373;28;20028;-14
2023/01/04 06:46:18;;;;;;;43.15;27.48;;;4.20;85.70;;;;;;5093821;28;20100;-14
2023/01/04 06:48:44;;;;;;;44.70;28.02;;;4.20;85.70;;;;;;5093757;28;20476;-13
2023/01/04 06:51:11;;;;;;;43.13;25.60;;;4.20;85.70;;;;;;5093344;28;20039;-14
2023/01/04 06:53:36;;;;;;;61.97;36.42;;;4.20;85.70;;;;;;5093473;28;20024;-14
2023/01/04 06:56:02;;;;;;;61.00;34.20;;;4.20;85.60;;;;;;5093574;28;20101;-13
2023/01/04 06:58:28;;;;;;;59.65;34.47;;;4.30;85.60;;;;;;5093272;28;20024;-12
2023/01/04 07:00:55;;;;;;;57.97;33.42;;;4.30;85.60;;;;;;5093164;28;20047;-13
2023/01/04 07:03:21;;;;;;;56.30;31.92;;;4.30;85.60;;;;;;5093092;28;20025;-12
2023/01/04 07:05:47;;;;;;;53.50;28.10;;;4.20;85.60;;;;;;5093284;28;20478;-12
2023/01/04 07:08:14;;;;;;;50.35;28.42;;;4.30;85.70;;;;;;5093304;28;20586;-11
2023/01/04 07:10:40;;;;;;;41.92;26.02;;;4.20;85.60;;;;;;5093212;28;20035;-12
2023/01/04 07:13:07;;;;;;;43.00;26.38;;;4.20;85.60;;;;;;5092746;28;20103;-12
2023/01/04 07:15:33;;;;;;;39.42;24.02;;;4.20;85.60;;;;;;5093026;28;20032;-12
2023/01/04 07:17:59;;;;;;;55.47;33.65;;;4.10;85.60;;;;;;5093047;28;20031;-12
2023/01/04 07:20:26;;;;;;;47.15;29.55;;;4.10;85.60;;;;;;5092804;28;20081;-13
2023/01/04 07:22:51;;;;;;;40.95;24.63;;;4.00;85.70;;;;;;5092892;28;20016;-12
2023/01/04 07:25:17;;;;;;;48.83;27.40;;;4.00;85.70;;;;;;5092753;28;20055;-14
2023/01/04 07:27:43;;;;;;;46.67;28.58;;;3.90;85.70;;;;;;5092699;28;20063;-12
2023/01/04 07:30:10;;;;;;;49.95;29.33;;;4.00;85.70;;;;;;5091272;28;20083;-13
2023/01/04 07:32:36;;;;;;;47.65;27.65;;;4.00;85.90;;;;;;5093005;28;20028;-13
2023/01/04 07:35:02;;;;;;;39.67;24.48;;;4.10;86.00;;;;;;5092539;28;20095;-14
2023/01/04 07:37:27;;;;;;;42.67;25.95;;;4.10;86.10;;;;;;5093058;28;20051;-12
2023/01/04 07:39:53;;;;;;;55.17;30.33;;;4.20;86.10;;;;;;5092898;28;20400;-14
2023/01/04 07:42:20;;;;;;;38.78;24.70;;;4.20;86.00;;;;;;5091521;28;20031;-12
2023/01/04 07:44:46;;;;;;;53.67;30.45;;;4.20;86.00;;;;;;5092515;28;20522;-14
2023/01/04 07:47:12;;;;;;;57.28;34.08;;;4.30;86.00;;;;;;5092478;28;20111;-13
2023/01/04 07:49:38;;;;;;;47.95;29.05;;;4.40;85.90;;;;;;5092735;28;20032;-13
2023/01/04 07:52:03;;;;;;;39.13;25.90;;;4.40;85.90;;;;;;5092568;28;20118;-14
2023/01/04 07:54:29;;;;;;;49.92;29.52;;;4.40;86.00;;;;;;5091169;28;20119;-13
2023/01/04 07:56:55;;;;;;;42.63;27.70;;;4.50;86.00;;;;;;5092180;28;20372;-14
2023/01/04 07:59:21;;;;;;;46.85;29.48;;;4.50;86.10;;;;;;5092385;28;20023;-13
2023/01/04 08:01:49;;;;;;;56.33;33.55;;;4.60;86.10;;;;;;5092691;28;20036;-13
2023/01/04 08:04:16;;;;;;;46.00;29.00;;;4.70;86.10;;;;;;5094667;28;20040;-13
2023/01/04 08:06:45;;;;;;;43.80;26.90;;;4.80;86.20;;;;;;5095241;28;20483;-15
2023/01/04 08:09:11;;;;;;;34.78;21.35;;;4.90;86.00;;;;;;5096246;28;20491;-12
2023/01/04 08:11:37;;;;;;;35.33;23.55;;;5.00;86.10;;;;;;5095132;28;20356;-13
2023/01/04 08:14:03;;;;;;;49.28;28.17;;;5.10;85.90;;;;;;5096325;28;20500;-13
2023/01/04 08:16:34;;;;;;;47.55;27.55;;;5.20;85.80;;;;;;5096371;28;20058;-13
2023/01/04 08:19:13;;;;;;;51.17;30.10;;;5.40;85.90;;;;;;5094895;28;20030;-12
2023/01/04 08:21:39;;;;;;;52.33;31.63;;;5.50;85.30;;;;;;5096444;28;20025;-14
2023/01/04 08:24:05;;;;;;;49.88;27.17;;;5.60;85.40;;;;;;5096241;28;20020;-13
2023/01/04 08:26:31;;;;;;;43.88;26.27;;;5.80;85.10;;;;;;5096277;28;20031;-12
2023/01/04 08:28:57;;;;;;;45.53;27.02;;;5.90;85.10;;;;;;5095892;28;20024;-13
2023/01/04 08:31:26;;;;;;;44.13;27.75;;;6.00;85.00;;;;;;5095749;28;20047;-13
2023/01/04 08:33:52;;;;;;;45.65;28.05;;;6.20;85.10;;;;;;5095979;28;20092;-12
2023/01/04 08:36:23;;;;;;;46.05;27.67;;;6.30;85.00;;;;;;5096124;28;20102;-12
2023/01/04 08:38:51;;;;;;;43.63;27.02;;;6.40;84.80;;;;;;5095983;28;20040;-14
2023/01/04 08:41:18;;;;;;;43.20;26.20;;;6.60;84.70;;;;;;5095781;28;20502;-14
2023/01/04 08:43:45;;;;;;;47.00;27.15;;;6.80;84.70;;;;;;5095646;28;20031;-14
2023/01/04 08:46:12;;;;;;;39.25;25.55;;;6.90;84.80;;;;;;5094478;28;20365;-13
2023/01/04 08:48:39;;;;;;;40.58;24.58;;;7.10;84.70;;;;;;5094273;28;20381;-14
2023/01/04 08:51:07;;;;;;;37.85;24.23;;;7.20;84.50;;;;;;5095431;28;20036;-14
2023/01/04 08:53:34;;;;;;;35.25;23.10;;;7.40;84.60;;;;;;5095857;28;20030;-14
2023/01/04 08:56:01;;;;;;;42.47;24.13;;;7.60;84.50;;;;;;5095839;28;20116;-13
2023/01/04 08:58:29;;;;;;;35.20;23.35;;;7.80;84.40;;;;;;5095847;28;20353;-14
2023/01/04 09:01:06;;;;;;;38.47;23.42;;;8.00;84.50;;;;;;5095833;28;20357;-14
2023/01/04 09:03:33;;;;;;;33.58;22.48;;;8.20;84.40;;;;;;5095427;28;20039;-13
2023/01/04 09:06:06;;;;;;;30.50;19.55;;;8.50;84.30;;;;;;5095358;28;20024;-13
2023/01/04 09:08:34;;;;;;;38.25;21.58;;;8.70;83.70;;;;;;5095376;28;20373;-13
2023/01/04 09:11:20;;;;;;;34.38;22.42;;;8.80;83.60;;;;;;5095429;28;20124;-14
2023/01/04 09:13:47;;;;;;;37.25;21.98;;;9.00;83.20;;;;;;5095534;28;20073;-14
2023/01/04 09:16:15;;;;;;;33.03;20.80;;;9.10;83.00;;;;;;5094338;28;20039;-14
2023/01/04 09:18:42;;;;;;;32.92;21.33;;;9.30;82.80;;;;;;5095043;28;20372;-12
2023/01/04 09:21:10;;;;;;;32.97;20.67;;;9.40;82.40;;;;;;5095082;28;20012;-12
2023/01/04 09:23:37;;;;;;;32.92;20.65;;;9.50;82.70;;;;;;5095238;28;20025;-13
2023/01/04 09:26:21;;;;;;;32.28;20.75;;;9.60;82.80;;;;;;5095009;28;20027;-12
2023/01/04 09:28:48;;;;;;;29.25;18.58;;;9.90;82.80;;;;;;5094686;28;20066;-12
2023/01/04 09:31:17;;;;;;;32.90;19.77;;;10.10;82.80;;;;;;5094696;28;20052;-12
2023/01/04 09:33:44;;;;;;;27.38;17.83;;;10.30;82.50;;;;;;5095168;28;20024;-12
2023/01/04 09:36:13;;;;;;;27.60;18.65;;;10.40;82.30;;;;;;5094840;28;20173;-12
2023/01/04 09:38:39;;;;;;;29.25;18.42;;;10.60;81.90;;;;;;5094786;28;20027;-12
2023/01/04 09:41:13;;;;;;;28.67;17.13;;;10.70;81.80;;;;;;5094514;28;20020;-14
2023/01/04 09:43:52;;;;;;;45.72;28.73;;;10.90;81.60;;;;;;5094966;28;20028;-13
2023/01/04 09:46:37;;;;;;;34.95;23.77;;;11.00;81.20;;;;;;5094931;28;20407;-12
2023/01/04 09:49:12;;;;;;;24.75;16.20;;;11.20;81.10;;;;;;5094502;28;20024;-14
2023/01/04 09:51:42;;;;;;;26.98;17.25;;;11.40;80.80;;;;;;5094726;28;20093;-13
2023/01/04 09:54:19;;;;;;;24.92;16.80;;;11.50;80.60;;;;;;5095194;28;20052;-14
2023/01/04 09:56:57;;;;;;;24.02;16.35;;;11.80;80.40;;;;;;5094826;28;20025;-13
2023/01/04 09:59:30;;;;;;;25.17;17.48;;;11.90;80.10;;;;;;5094249;28;20077;-13
2023/01/04 10:02:14;;;;;;;25.98;17.98;;;11.90;79.30;;;;;;5094437;28;20119;-12
2023/01/04 10:04:42;;;;;;;26.77;16.80;;;12.10;79.60;;;;;;5094655;28;20032;-13
2023/01/04 10:07:22;;;;;;;25.75;16.83;;;12.30;79.20;;;;;;5094141;28;20052;-12
2023/01/04 10:09:48;;;;;;;27.50;16.30;;;12.50;78.60;;;;;;5094512;28;20095;-14
2023/01/04 10:12:29;;;;;;;22.25;15.70;;;12.60;77.30;;;;;;5094162;28;20189;-13
2023/01/04 10:15:10;;;;;;;23.83;15.73;;;12.80;77.00;;;;;;5093870;28;20035;-13
2023/01/04 10:17:54;;;;;;;22.08;14.93;;;12.90;76.20;;;;;;5094422;28;20024;-13
2023/01/04 10:20:29;;;;;;;33.65;16.42;;;13.00;75.70;;;;;;5094325;28;20031;-12
2023/01/04 10:23:20;;;;;;;27.30;16.65;;;13.10;75.30;;;;;;5093775;28;20032;-13
2023/01/04 10:26:11;;;;;;;26.15;17.90;;;13.10;74.70;;;;;;5094296;28;20028;-14
2023/01/04 10:29:02;;;;;;;28.27;17.85;;;13.20;74.80;;;;;;5092536;28;20463;-13
2023/01/04 10:31:40;;;;;;;31.77;18.52;;;13.30;74.80;;;;;;5092217;28;20433;-13
2023/01/04 10:34:15;;;;;;;33.05;19.05;;;13.40;74.30;;;;;;5093940;28;20090;-13
2023/01/04 10:36:42;;;;;;;29.13;19.10;;;13.50;73.90;;;;;;5093986;28;20059;-13
2023/01/04 10:39:17;;;;;;;29.27;17.77;;;13.60;73.70;;;;;;5093772;28;20379;-14
2023/01/04 10:41:57;;;;;;;32.30;20.02;;;13.80;74.00;;;;;;5093915;28;20126;-13
2023/01/04 10:44:25;;;;;;;29.63;17.98;;;13.90;73.50;;;;;;5093691;28;20433;-14
2023/01/04 10:47:04;;;;;;;30.35;17.02;;;14.10;73.70;;;;;;5093198;28;20582;-13
2023/01/04 10:49:52;;;;;;;27.02;17.48;;;14.20;73.20;;;;;;5093755;28;20119;-12
2023/01/04 10:52:35;;;;;;;27.88;17.40;;;14.50;72.30;;;;;;5093297;28;20360;-13
2023/01/04 10:55:14;;;;;;;31.33;19.60;;;14.70;72.10;;;;;;5093190;28;20491;-13
2023/01/04 10:57:53;;;;;;;29.67;18.92;;;14.90;70.90;;;;;;5093223;28;20039;-13
2023/01/04 11:00:31;;;;;;;27.48;17.58;;;15.20;70.20;;;;;;5093588;28;20096;-12
2023/01/04 11:03:13;;;;;;;29.08;19.00;;;15.30;69.70;;;;;;5092530;28;20448;-11
2023/01/04 11:06:09;;;;;;;23.65;16.05;;;15.30;68.90;;;;;;5092011;28;20028;-11
2023/01/04 11:08:50;;;;;;;27.25;15.75;;;15.30;68.10;;;;;;5090338;28;20040;-14
2023/01/04 11:11:36;;;;;;;22.25;15.38;;;15.40;68.40;;;;;;5091801;28;20040;-14
2023/01/04 11:14:03;;;;;;;24.50;15.13;;;15.40;67.80;;;;;;5093376;28;20032;-14
2023/01/04 11:16:29;;;;;;;27.25;15.80;;;15.60;67.60;;;;;;5093011;28;20099;-14
2023/01/04 11:18:55;;;;;;;21.15;13.52;;;15.90;66.20;;;;;;5092854;28;20027;-13
2023/01/04 11:21:28;;;;;;;20.05;13.82;;;16.10;65.90;;;;;;5093065;28;20028;-13
2023/01/04 11:23:59;;;;;;;18.48;13.10;;;16.30;65.10;;;;;;5093725;28;20036;-14
2023/01/04 11:26:31;;;;;;;19.98;13.30;;;16.40;65.00;;;;;;5092976;28;20106;-13
2023/01/04 11:29:05;;;;;;;20.60;14.20;;;16.50;64.80;;;;;;5092870;28;20056;-13
2023/01/04 11:32:00;;;;;;;20.05;14.27;;;16.60;63.70;;;;;;5092666;28;20533;-12
2023/01/04 11:34:51;;;;;;;19.35;12.88;;;16.50;64.00;;;;;;5092819;28;20032;-12
2023/01/04 11:37:37;;;;;;;20.88;13.82;;;16.40;64.20;;;;;;5093259;28;20012;-12
2023/01/04 11:40:09;;;;;;;24.00;14.40;;;16.70;63.80;;;;;;5092918;28;20032;-13
2023/01/04 11:42:35;;;;;;;18.85;12.55;;;16.90;64.30;;;;;;5092607;28;20119;-14
2023/01/04 11:45:02;;;;;;;20.65;12.85;;;17.00;63.90;;;;;;5092675;28;20028;-12
2023/01/04 11:47:28;;;;;;;20.90;13.85;;;17.20;63.10;;;;;;5092586;28;20027;-12
2023/01/04 11:49:54;;;;;;;19.95;13.38;;;17.30;62.70;;;;;;5092868;28;20024;-11
2023/01/04 11:52:37;;;;;;;22.63;14.75;;;17.40;62.50;;;;;;5092738;28;20036;-13
2023/01/04 11:55:16;;;;;;;22.55;13.80;;;17.50;62.00;;;;;;5093185;28;20051;-12
2023/01/04 11:57:42;;;;;;;21.40;13.57;;;17.50;61.40;;;;;;5092417;28;20487;-13
2023/01/04 12:00:14;;;;;;;20.63;13.60;;;17.50;61.50;;;;;;5092480;28;20055;-12
2023/01/04 12:02:39;;;;;;;22.70;13.60;;;17.50;61.90;;;;;;5092465;28;20074;-13
2023/01/04 12:05:18;;;;;;;20.02;13.32;;;17.50;61.80;;;;;;5092160;28;20017;-12
2023/01/04 12:07:43;;;;;;;20.42;15.02;;;17.70;60.80;;;;;;5092473;28;20037;-12
2023/01/04 12:10:21;;;;;;;24.30;14.60;;;17.80;60.70;;;;;;5092383;28;20077;-12
2023/01/04 12:12:47;;;;;;;23.30;14.60;;;17.90;59.90;;;;;;5091926;28;20024;-12
2023/01/04 12:15:21;;;;;;;26.80;15.65;;;17.90;59.80;;;;;;5092336;28;20024;-12
2023/01/04 12:18:05;;;;;;;24.52;15.98;;;17.90;59.80;;;;;;5092416;28;20020;-12
2023/01/04 12:20:31;;;;;;;;;;;17.90;59.60;;;;;;5092969;28;20490;-14
2023/01/04 12:22:56;;;;;;;27.65;17.05;;;17.90;59.30;;;;;;5092525;28;19904;-12
2023/01/04 12:25:44;;;;;;;23.98;15.57;;;17.70;60.00;;;;;;5092758;28;20154;-13
2023/01/04 12:28:43;;;;;;;25.40;17.83;;;17.60;60.80;;;;;;5092153;28;20507;-13
2023/01/04 12:31:29;;;;;;;25.25;17.20;;;17.60;60.40;;;;;;5058370;28;20040;-14
2023/01/04 12:34:29;;;;;;;27.75;16.67;;;17.50;60.50;;;;;;5092509;28;20103;-14
2023/01/04 12:36:58;;;;;;;26.02;17.88;;;17.40;61.60;;;;;;5029703;28;20040;-13
2023/01/04 12:39:40;;;;;;;26.70;19.27;;;17.50;61.00;;;;;;5029856;28;20405;-13
2023/01/04 12:42:06;;;;;;;27.35;18.90;;;17.60;60.80;;;;;;5029855;28;20037;-13
2023/01/04 12:44:37;;;;;;;26.70;18.30;;;17.70;60.60;;;;;;5029789;28;20030;-12
2023/01/04 12:50:12;;;;;;;25.10;17.33;;;17.60;60.30;;;;;;5030324;28;20041;-12
2023/01/04 12:52:57;;;;;;;30.17;19.58;;;17.50;60.70;;;;;;5033550;28;20052;-12
2023/01/04 12:55:24;;;;;;;29.45;18.50;;;17.60;59.50;;;;;;5033374;28;20079;-12
2023/01/04 12:57:50;;;;;;;27.08;18.05;;;17.50;59.60;;;;;;5033186;28;20041;-12
2023/01/04 13:00:17;;;;;;;28.17;17.58;;;17.60;59.70;;;;;;5033299;28;20167;-12
2023/01/04 13:03:06;;;;;;;25.85;17.15;;;17.60;60.30;;;;;;5033251;28;20021;-12
2023/01/04 13:05:36;;;;;;;27.67;17.10;;;17.80;60.20;;;;;;5033455;28;20513;-13
2023/01/04 13:08:10;;;;;;;30.00;18.95;;;18.00;59.80;;;;;;5033075;28;20112;-13
2023/01/04 13:10:43;;;;;;;27.80;18.20;;;18.20;59.00;;;;;;5033168;28;20040;-14
2023/01/04 13:13:24;;;;;;;31.00;20.13;;;18.40;57.40;;;;;;5082015;28;20099;-13
2023/01/04 13:16:45;;;;;;;29.00;18.52;;;18.40;57.40;;;;;;5095315;28;20031;-12
2023/01/04 13:19:23;;;;;;;27.23;17.58;;;18.40;58.20;;;;;;5073674;28;20056;-11
2023/01/04 13:21:51;;;;;;;28.55;19.13;;;18.40;58.40;;;;;;5095345;28;20031;-12
2023/01/04 13:24:30;;;;;;;29.80;19.00;;;18.30;58.60;;;;;;5093786;28;20313;-12
2023/01/04 13:27:05;;;;;;;34.88;23.08;;;18.20;58.30;;;;;;5094855;28;20043;-13
2023/01/04 13:29:33;;;;;;;32.65;21.35;;;18.10;58.70;;;;;;5095028;28;20459;-12
2023/01/04 13:32:10;;;;;;;33.58;23.27;;;17.70;59.80;;;;;;5095260;28;20119;-12
2023/01/04 13:34:40;;;;;;;39.05;26.00;;;17.40;60.50;;;;;;5095221;28;20020;-12
2023/01/04 13:37:17;;;;;;;38.30;25.15;;;17.00;61.10;;;;;;5094951;28;20379;-11
2023/01/04 13:39:49;;;;;;;36.05;23.63;;;16.60;62.10;;;;;;5095228;28;20024;-12
2023/01/04 13:42:17;;;;;;;38.70;23.38;;;16.50;62.70;;;;;;5094778;28;20476;-12
2023/01/04 13:44:46;;;;;;;35.90;23.33;;;16.60;62.70;;;;;;5094583;28;20024;-12
2023/01/04 13:47:12;;;;;;;38.25;24.77;;;16.60;62.60;;;;;;5094864;28;20352;-12